SBI127 UNNT-UASK
Flight info
| Callsign | SBI127 |
|---|---|
| Flight time | 1h 3m |
| Altitude | 36000 |
| Route | ALIRO1K ALIRO R484 RUBID/K0802F370 G831 ADARO ADARO1A |
| Aircraft | E170/M-SDE3GILORVW/S |
Departure
| Time | 2026-05-04 12:44 |
|---|---|
| Airport | Novosibirsk Tolmachevo Airport (UNNT) |
Arrival
| Time | 2026-05-04 13:47 |
|---|---|
| Airport | Oskemen International Airport (UASK) |
| Time | Latitude | Longitude | Altitude | Speed | Heading |
|---|---|---|---|---|---|
| 2026-05-04 12:21 | 55.01131 | 82.66931 | 344 ft | 0 kts | 171° |
| 2026-05-04 12:39 | 55.01117 | 82.66934 | 371 ft | 4 kts | 173° |
| 2026-05-04 12:40 | 55.01085 | 82.66954 | 371 ft | 5 kts | 141° |
| 2026-05-04 12:40 | 55.01080 | 82.66977 | 371 ft | 3 kts | 82° |
| 2026-05-04 12:40 | 55.01090 | 82.67081 | 371 ft | 15 kts | 81° |
| 2026-05-04 12:40 | 55.01106 | 82.67308 | 371 ft | 21 kts | 90° |
| 2026-05-04 12:41 | 55.01144 | 82.67490 | 371 ft | 12 kts | 31° |
| 2026-05-04 12:41 | 55.01234 | 82.67579 | 371 ft | 18 kts | 29° |
| 2026-05-04 12:41 | 55.01356 | 82.67705 | 370 ft | 22 kts | 31° |
| 2026-05-04 12:41 | 55.01451 | 82.67761 | 369 ft | 13 kts | 333° |
| 2026-05-04 12:42 | 55.01475 | 82.67627 | 369 ft | 14 kts | 259° |
| 2026-05-04 12:42 | 55.01451 | 82.67465 | 368 ft | 13 kts | 259° |
| 2026-05-04 12:42 | 55.01442 | 82.67344 | 369 ft | 7 kts | 283° |
| 2026-05-04 12:42 | 55.01442 | 82.67251 | 370 ft | 6 kts | 261° |
| 2026-05-04 12:43 | 55.01440 | 82.67229 | 371 ft | 15 kts | 261° |
| 2026-05-04 12:43 | 55.01383 | 82.66607 | 372 ft | 88 kts | 261° |
| 2026-05-04 12:43 | 55.01263 | 82.65187 | 422 ft | 141 kts | 262° |
| 2026-05-04 12:43 | 55.01108 | 82.63417 | 912 ft | 157 kts | 262° |
| 2026-05-04 12:44 | 55.01003 | 82.61509 | 1634 ft | 160 kts | 273° |
| 2026-05-04 12:44 | 55.01215 | 82.59552 | 2200 ft | 180 kts | 292° |
| 2026-05-04 12:44 | 55.01774 | 82.57368 | 2758 ft | 219 kts | 295° |
| 2026-05-04 12:44 | 55.02193 | 82.54855 | 3547 ft | 215 kts | 276° |
| 2026-05-04 12:45 | 55.02268 | 82.52152 | 4008 ft | 232 kts | 274° |
| 2026-05-04 12:45 | 55.02311 | 82.49262 | 4442 ft | 247 kts | 264° |
| 2026-05-04 12:45 | 55.01623 | 82.46455 | 4971 ft | 260 kts | 233° |
| 2026-05-04 12:45 | 55.00168 | 82.44557 | 5635 ft | 268 kts | 204° |
| 2026-05-04 12:46 | 54.98338 | 82.44096 | 6245 ft | 277 kts | 176° |
| 2026-05-04 12:46 | 54.96513 | 82.45182 | 6857 ft | 282 kts | 152° |
| 2026-05-04 12:46 | 54.94817 | 82.46949 | 7373 ft | 286 kts | 149° |
| 2026-05-04 12:46 | 54.93121 | 82.48796 | 7907 ft | 289 kts | 149° |
| 2026-05-04 12:47 | 54.91356 | 82.50501 | 8391 ft | 292 kts | 158° |
| 2026-05-04 12:47 | 54.89422 | 82.51622 | 8900 ft | 295 kts | 167° |
| 2026-05-04 12:47 | 54.87412 | 82.52358 | 9428 ft | 297 kts | 172° |
| 2026-05-04 12:47 | 54.85355 | 82.52829 | 9949 ft | 300 kts | 176° |
| 2026-05-04 12:48 | 54.83240 | 82.53151 | 10180 ft | 313 kts | 178° |
| 2026-05-04 12:48 | 54.81051 | 82.53401 | 10371 ft | 324 kts | 179° |
| 2026-05-04 12:48 | 54.78788 | 82.53560 | 10770 ft | 327 kts | 182° |
| 2026-05-04 12:48 | 54.76511 | 82.53462 | 11127 ft | 330 kts | 182° |
| 2026-05-04 12:49 | 54.74207 | 82.53393 | 11523 ft | 332 kts | 184° |
| 2026-05-04 12:49 | 54.71891 | 82.53297 | 11914 ft | 334 kts | 184° |
| 2026-05-04 12:49 | 54.69556 | 82.53195 | 12291 ft | 337 kts | 184° |
| 2026-05-04 12:49 | 54.67209 | 82.53091 | 12664 ft | 339 kts | 184° |
| 2026-05-04 12:50 | 54.64839 | 82.52986 | 13027 ft | 341 kts | 184° |
| 2026-05-04 12:50 | 54.62491 | 82.52881 | 13379 ft | 344 kts | 184° |
| 2026-05-04 12:50 | 54.60090 | 82.52773 | 13733 ft | 346 kts | 184° |
| 2026-05-04 12:50 | 54.57678 | 82.52665 | 14065 ft | 348 kts | 184° |
| 2026-05-04 12:51 | 54.55263 | 82.52364 | 14358 ft | 348 kts | 191° |
| 2026-05-04 12:51 | 54.52866 | 82.51731 | 14658 ft | 350 kts | 193° |
| 2026-05-04 12:51 | 54.50466 | 82.50986 | 14983 ft | 351 kts | 194° |
| 2026-05-04 12:51 | 54.48075 | 82.50140 | 15270 ft | 352 kts | 197° |
| 2026-05-04 12:52 | 54.45707 | 82.49051 | 15550 ft | 352 kts | 199° |
| 2026-05-04 12:52 | 54.43347 | 82.47929 | 15865 ft | 353 kts | 199° |
| 2026-05-04 12:52 | 54.41009 | 82.46808 | 16119 ft | 355 kts | 199° |
| 2026-05-04 12:52 | 54.38624 | 82.45663 | 16366 ft | 357 kts | 199° |
| 2026-05-04 12:53 | 54.36226 | 82.44513 | 16605 ft | 359 kts | 199° |
| 2026-05-04 12:53 | 54.33818 | 82.43359 | 16832 ft | 360 kts | 199° |
| 2026-05-04 12:53 | 54.31398 | 82.42200 | 17048 ft | 362 kts | 199° |
| 2026-05-04 12:53 | 54.28965 | 82.41038 | 17269 ft | 364 kts | 199° |
| 2026-05-04 12:54 | 54.26528 | 82.39874 | 17490 ft | 365 kts | 199° |
| 2026-05-04 12:54 | 54.24076 | 82.38703 | 17703 ft | 366 kts | 199° |
| 2026-05-04 12:54 | 54.21621 | 82.37535 | 17906 ft | 367 kts | 199° |
| 2026-05-04 12:54 | 54.19186 | 82.36377 | 18100 ft | 369 kts | 199° |
| 2026-05-04 12:55 | 54.16712 | 82.35201 | 18287 ft | 370 kts | 199° |
| 2026-05-04 12:55 | 54.14234 | 82.34026 | 18446 ft | 365 kts | 199° |
| 2026-05-04 12:55 | 54.11764 | 82.32853 | 18711 ft | 371 kts | 199° |
| 2026-05-04 12:55 | 54.09268 | 82.31672 | 19330 ft | 374 kts | 199° |
| 2026-05-04 12:56 | 54.06746 | 82.30479 | 19942 ft | 378 kts | 199° |
| 2026-05-04 12:56 | 54.04197 | 82.29277 | 20550 ft | 382 kts | 199° |
| 2026-05-04 12:56 | 54.01626 | 82.28064 | 21141 ft | 386 kts | 199° |
| 2026-05-04 12:56 | 53.99027 | 82.26840 | 21716 ft | 389 kts | 199° |
| 2026-05-04 12:57 | 53.96443 | 82.25625 | 22292 ft | 392 kts | 199° |
| 2026-05-04 12:57 | 53.93801 | 82.24384 | 22884 ft | 396 kts | 199° |
| 2026-05-04 12:57 | 53.91132 | 82.23132 | 23465 ft | 400 kts | 199° |
| 2026-05-04 12:57 | 53.88437 | 82.21869 | 24015 ft | 403 kts | 199° |
| 2026-05-04 12:58 | 53.85725 | 82.20599 | 24544 ft | 406 kts | 199° |
| 2026-05-04 12:58 | 53.82988 | 82.19321 | 25070 ft | 409 kts | 199° |
| 2026-05-04 12:58 | 53.80242 | 82.18039 | 25579 ft | 411 kts | 199° |
| 2026-05-04 12:58 | 53.77474 | 82.16750 | 26061 ft | 414 kts | 199° |
| 2026-05-04 12:59 | 53.74690 | 82.15452 | 26551 ft | 415 kts | 199° |
| 2026-05-04 12:59 | 53.71932 | 82.14172 | 26994 ft | 418 kts | 199° |
| 2026-05-04 12:59 | 53.69123 | 82.12870 | 27437 ft | 420 kts | 199° |
| 2026-05-04 12:59 | 53.66296 | 82.11560 | 27875 ft | 423 kts | 199° |
| 2026-05-04 13:00 | 53.63450 | 82.10243 | 28291 ft | 425 kts | 199° |
| 2026-05-04 13:00 | 53.60586 | 82.08919 | 28695 ft | 428 kts | 199° |
| 2026-05-04 13:00 | 53.57707 | 82.07591 | 29089 ft | 430 kts | 199° |
| 2026-05-04 13:00 | 53.54813 | 82.06257 | 29467 ft | 432 kts | 199° |
| 2026-05-04 13:01 | 53.51901 | 82.04917 | 29833 ft | 435 kts | 199° |
| 2026-05-04 13:01 | 53.45974 | 82.02196 | 30264 ft | 444 kts | 198° |
| 2026-05-04 13:01 | 53.43033 | 82.00849 | 30608 ft | 444 kts | 199° |
| 2026-05-04 13:02 | 53.40053 | 81.99486 | 30940 ft | 444 kts | 199° |
| 2026-05-04 13:02 | 53.37073 | 81.98124 | 31283 ft | 444 kts | 199° |
| 2026-05-04 13:02 | 53.34089 | 81.96762 | 31618 ft | 444 kts | 199° |
| 2026-05-04 13:02 | 53.31106 | 81.95404 | 31959 ft | 444 kts | 199° |
| 2026-05-04 13:03 | 53.28124 | 81.94047 | 32309 ft | 444 kts | 199° |
| 2026-05-04 13:03 | 53.25143 | 81.92693 | 32661 ft | 444 kts | 199° |
| 2026-05-04 13:03 | 53.22159 | 81.91340 | 33010 ft | 444 kts | 199° |
| 2026-05-04 13:03 | 53.19185 | 81.89993 | 33401 ft | 443 kts | 199° |
| 2026-05-04 13:04 | 53.16205 | 81.88645 | 33783 ft | 443 kts | 199° |
| 2026-05-04 13:04 | 53.13268 | 81.87319 | 34156 ft | 443 kts | 200° |
| 2026-05-04 13:04 | 53.10293 | 81.85976 | 34469 ft | 443 kts | 200° |
| 2026-05-04 13:04 | 53.07316 | 81.84636 | 34778 ft | 442 kts | 200° |
| 2026-05-04 13:05 | 53.04345 | 81.83301 | 35053 ft | 442 kts | 200° |
| 2026-05-04 13:05 | 53.01380 | 81.81969 | 35343 ft | 442 kts | 200° |
| 2026-05-04 13:05 | 52.98415 | 81.80640 | 35628 ft | 441 kts | 200° |
| 2026-05-04 13:05 | 52.95456 | 81.79315 | 35907 ft | 440 kts | 200° |
| 2026-05-04 13:06 | 52.92520 | 81.78005 | 36045 ft | 431 kts | 200° |
| 2026-05-04 13:06 | 52.86670 | 81.75390 | 36139 ft | 442 kts | 200° |
| 2026-05-04 13:07 | 52.80745 | 81.72757 | 36142 ft | 444 kts | 199° |
| 2026-05-04 13:07 | 52.74792 | 81.70116 | 36147 ft | 443 kts | 199° |
| 2026-05-04 13:08 | 52.68842 | 81.67483 | 36139 ft | 442 kts | 199° |
| 2026-05-04 13:08 | 52.62899 | 81.64862 | 36151 ft | 442 kts | 199° |
| 2026-05-04 13:09 | 52.56994 | 81.62264 | 36144 ft | 442 kts | 199° |
| 2026-05-04 13:09 | 52.51047 | 81.59655 | 36145 ft | 442 kts | 199° |
| 2026-05-04 13:10 | 52.45104 | 81.57055 | 36127 ft | 441 kts | 199° |
| 2026-05-04 13:10 | 52.39176 | 81.54469 | 36149 ft | 441 kts | 199° |
| 2026-05-04 13:11 | 52.33271 | 81.51900 | 36147 ft | 443 kts | 199° |
| 2026-05-04 13:11 | 52.27315 | 81.49317 | 36134 ft | 442 kts | 199° |
| 2026-05-04 13:12 | 52.21366 | 81.46743 | 36126 ft | 442 kts | 199° |
| 2026-05-04 13:12 | 52.15427 | 81.44180 | 36148 ft | 442 kts | 199° |
| 2026-05-04 13:13 | 52.09522 | 81.41641 | 36137 ft | 442 kts | 199° |
| 2026-05-04 13:13 | 52.03578 | 81.39090 | 36138 ft | 442 kts | 199° |
| 2026-05-04 13:14 | 51.97630 | 81.36545 | 36146 ft | 442 kts | 199° |
| 2026-05-04 13:14 | 51.91691 | 81.34011 | 36149 ft | 441 kts | 199° |
| 2026-05-04 13:15 | 51.85787 | 81.31499 | 36141 ft | 442 kts | 199° |
| 2026-05-04 13:15 | 51.79848 | 81.28978 | 36146 ft | 442 kts | 199° |
| 2026-05-04 13:16 | 51.73902 | 81.26462 | 36144 ft | 441 kts | 199° |
| 2026-05-04 13:16 | 51.67955 | 81.23951 | 36138 ft | 443 kts | 199° |
| 2026-05-04 13:17 | 51.62029 | 81.21471 | 36155 ft | 444 kts | 197° |
| 2026-05-04 13:17 | 51.55824 | 81.20810 | 35285 ft | 455 kts | 177° |
| 2026-05-04 13:17 | 51.52692 | 81.21715 | 34475 ft | 460 kts | 167° |
| 2026-05-04 13:18 | 51.49669 | 81.23443 | 33589 ft | 463 kts | 156° |
| 2026-05-04 13:18 | 51.46844 | 81.25939 | 32649 ft | 464 kts | 147° |
| 2026-05-04 13:18 | 51.44170 | 81.28836 | 31715 ft | 464 kts | 145° |
| 2026-05-04 13:18 | 51.41512 | 81.31794 | 30759 ft | 465 kts | 145° |
| 2026-05-04 13:19 | 51.38851 | 81.34743 | 29734 ft | 466 kts | 145° |
| 2026-05-04 13:19 | 51.36223 | 81.37636 | 28922 ft | 461 kts | 145° |
| 2026-05-04 13:19 | 51.33598 | 81.40505 | 28139 ft | 454 kts | 146° |
| 2026-05-04 13:19 | 51.30996 | 81.43297 | 27496 ft | 445 kts | 147° |
| 2026-05-04 13:20 | 51.28338 | 81.45724 | 27112 ft | 437 kts | 151° |
| 2026-05-04 13:20 | 51.25658 | 81.48062 | 26697 ft | 439 kts | 152° |
| 2026-05-04 13:20 | 51.22969 | 81.50358 | 26253 ft | 437 kts | 152° |
| 2026-05-04 13:20 | 51.20296 | 81.52630 | 25810 ft | 433 kts | 152° |
| 2026-05-04 13:21 | 51.17646 | 81.54886 | 25347 ft | 430 kts | 152° |
| 2026-05-04 13:21 | 51.15013 | 81.57121 | 24833 ft | 427 kts | 152° |
| 2026-05-04 13:21 | 51.12443 | 81.59299 | 24336 ft | 422 kts | 152° |
| 2026-05-04 13:21 | 51.09860 | 81.61486 | 23848 ft | 419 kts | 152° |
| 2026-05-04 13:22 | 51.07300 | 81.63651 | 23297 ft | 415 kts | 152° |
| 2026-05-04 13:22 | 51.04764 | 81.65793 | 22729 ft | 411 kts | 152° |
| 2026-05-04 13:22 | 51.02250 | 81.67914 | 22173 ft | 406 kts | 152° |
| 2026-05-04 13:22 | 50.99767 | 81.70009 | 21645 ft | 403 kts | 152° |
| 2026-05-04 13:23 | 50.97301 | 81.72085 | 21039 ft | 400 kts | 152° |
| 2026-05-04 13:23 | 50.94850 | 81.74145 | 20375 ft | 397 kts | 152° |
| 2026-05-04 13:23 | 50.92460 | 81.76153 | 19744 ft | 391 kts | 152° |
| 2026-05-04 13:23 | 50.90074 | 81.78155 | 19127 ft | 386 kts | 152° |
| 2026-05-04 13:24 | 50.87716 | 81.80131 | 18530 ft | 381 kts | 152° |
| 2026-05-04 13:24 | 50.85384 | 81.82083 | 17872 ft | 377 kts | 152° |
| 2026-05-04 13:24 | 50.83072 | 81.84016 | 17224 ft | 374 kts | 152° |
| 2026-05-04 13:25 | 50.78525 | 81.87876 | 15979 ft | 368 kts | 151° |
| 2026-05-04 13:25 | 50.76272 | 81.89789 | 15377 ft | 366 kts | 151° |
| 2026-05-04 13:25 | 50.74037 | 81.91682 | 14786 ft | 363 kts | 151° |
| 2026-05-04 13:25 | 50.71853 | 81.93528 | 14224 ft | 358 kts | 151° |
| 2026-05-04 13:26 | 50.69672 | 81.95371 | 13622 ft | 355 kts | 151° |
| 2026-05-04 13:26 | 50.67517 | 81.97192 | 13262 ft | 350 kts | 151° |
| 2026-05-04 13:26 | 50.65355 | 81.99016 | 13182 ft | 354 kts | 151° |
| 2026-05-04 13:26 | 50.63187 | 82.00844 | 13133 ft | 352 kts | 151° |
| 2026-05-04 13:27 | 50.61022 | 82.02665 | 13123 ft | 351 kts | 151° |
| 2026-05-04 13:27 | 50.58853 | 82.04486 | 13112 ft | 353 kts | 150° |
| 2026-05-04 13:27 | 50.56670 | 82.06322 | 13111 ft | 357 kts | 150° |
| 2026-05-04 13:27 | 50.54498 | 82.08145 | 13119 ft | 356 kts | 151° |
| 2026-05-04 13:28 | 50.52356 | 82.09941 | 13117 ft | 350 kts | 151° |
| 2026-05-04 13:28 | 50.50193 | 82.11750 | 13102 ft | 355 kts | 151° |
| 2026-05-04 13:28 | 50.48023 | 82.13567 | 13113 ft | 356 kts | 150° |
| 2026-05-04 13:28 | 50.45845 | 82.15389 | 13109 ft | 353 kts | 151° |
| 2026-05-04 13:29 | 50.43672 | 82.17203 | 13105 ft | 352 kts | 151° |
| 2026-05-04 13:29 | 50.41519 | 82.18997 | 13040 ft | 355 kts | 151° |
| 2026-05-04 13:29 | 50.39336 | 82.20813 | 12772 ft | 352 kts | 151° |
| 2026-05-04 13:29 | 50.39076 | 82.21030 | 12741 ft | 352 kts | 150° |
| 2026-05-04 13:30 | 50.37413 | 82.22402 | 12533 ft | 353 kts | 151° |
| 2026-05-04 13:30 | 50.35261 | 82.24190 | 12257 ft | 348 kts | 151° |
| 2026-05-04 13:30 | 50.33125 | 82.25967 | 11995 ft | 349 kts | 150° |
| 2026-05-04 13:31 | 50.31005 | 82.27728 | 11721 ft | 338 kts | 151° |
| 2026-05-04 13:31 | 50.28969 | 82.29417 | 11442 ft | 325 kts | 150° |
| 2026-05-04 13:31 | 50.27001 | 82.31053 | 11189 ft | 315 kts | 150° |
| 2026-05-04 13:31 | 50.25097 | 82.32630 | 10937 ft | 305 kts | 151° |
| 2026-05-04 13:32 | 50.23248 | 82.34160 | 10708 ft | 296 kts | 150° |
| 2026-05-04 13:32 | 50.21476 | 82.35622 | 10480 ft | 288 kts | 150° |
| 2026-05-04 13:32 | 50.19723 | 82.37070 | 10250 ft | 281 kts | 150° |
| 2026-05-04 13:32 | 50.18012 | 82.38481 | 9972 ft | 278 kts | 150° |
| 2026-05-04 13:33 | 50.16294 | 82.39897 | 9498 ft | 280 kts | 150° |
| 2026-05-04 13:33 | 50.14567 | 82.41322 | 9039 ft | 281 kts | 151° |
| 2026-05-04 13:33 | 50.12831 | 82.42747 | 8575 ft | 282 kts | 150° |
| 2026-05-04 13:33 | 50.11272 | 82.44546 | 8124 ft | 279 kts | 127° |
| 2026-05-04 13:34 | 50.10178 | 82.47007 | 7698 ft | 277 kts | 127° |
| 2026-05-04 13:34 | 50.08864 | 82.49154 | 7276 ft | 278 kts | 134° |
| 2026-05-04 13:34 | 50.07467 | 82.51240 | 6849 ft | 278 kts | 133° |
| 2026-05-04 13:34 | 50.06368 | 82.53666 | 6424 ft | 274 kts | 115° |
| 2026-05-04 13:35 | 50.05491 | 82.56293 | 5978 ft | 273 kts | 113° |
| 2026-05-04 13:35 | 50.03825 | 82.61585 | 5094 ft | 272 kts | 112° |
| 2026-05-04 13:35 | 50.02857 | 82.64105 | 4649 ft | 276 kts | 130° |
| 2026-05-04 13:36 | 50.01314 | 82.65910 | 4212 ft | 281 kts | 151° |
| 2026-05-04 13:36 | 49.99433 | 82.66535 | 4056 ft | 273 kts | 179° |
| 2026-05-04 13:36 | 49.97605 | 82.66395 | 4021 ft | 261 kts | 185° |
| 2026-05-04 13:36 | 49.95839 | 82.66146 | 4006 ft | 249 kts | 185° |
| 2026-05-04 13:37 | 49.94175 | 82.65912 | 3929 ft | 228 kts | 185° |
| 2026-05-04 13:37 | 49.92690 | 82.65643 | 3846 ft | 205 kts | 199° |
| 2026-05-04 13:37 | 49.91609 | 82.64491 | 3807 ft | 175 kts | 245° |
| 2026-05-04 13:37 | 49.91389 | 82.63420 | 3846 ft | 145 kts | 281° |
| 2026-05-04 13:38 | 49.91832 | 82.61628 | 3938 ft | 131 kts | 309° |
| 2026-05-04 13:38 | 49.92361 | 82.60477 | 3995 ft | 130 kts | 315° |
| 2026-05-04 13:38 | 49.92956 | 82.59419 | 4041 ft | 132 kts | 314° |
| 2026-05-04 13:38 | 49.93622 | 82.58532 | 3986 ft | 128 kts | 342° |
| 2026-05-04 13:39 | 49.94493 | 82.58402 | 3834 ft | 125 kts | 1° |
| 2026-05-04 13:39 | 49.95351 | 82.58504 | 3751 ft | 123 kts | 4° |
| 2026-05-04 13:39 | 49.96134 | 82.58270 | 3631 ft | 134 kts | 298° |
| 2026-05-04 13:39 | 49.95721 | 82.56984 | 3372 ft | 163 kts | 201° |
| 2026-05-04 13:40 | 49.94622 | 82.56622 | 3535 ft | 160 kts | 207° |
| 2026-05-04 13:40 | 49.93578 | 82.55990 | 3870 ft | 164 kts | 195° |
| 2026-05-04 13:40 | 49.92519 | 82.55323 | 3932 ft | 163 kts | 228° |
| 2026-05-04 13:40 | 49.92099 | 82.53882 | 3915 ft | 144 kts | 284° |
| 2026-05-04 13:41 | 49.92506 | 82.52604 | 3965 ft | 131 kts | 317° |
| 2026-05-04 13:41 | 49.93318 | 82.52403 | 3862 ft | 130 kts | 20° |
| 2026-05-04 13:41 | 49.93906 | 82.53500 | 3758 ft | 135 kts | 51° |
| 2026-05-04 13:42 | 49.94851 | 82.55992 | 3722 ft | 133 kts | 56° |
| 2026-05-04 13:42 | 49.95164 | 82.57374 | 3766 ft | 139 kts | 65° |
| 2026-05-04 13:42 | 49.95284 | 82.58882 | 3528 ft | 152 kts | 107° |
| 2026-05-04 13:42 | 49.94525 | 82.60058 | 3418 ft | 162 kts | 159° |
| 2026-05-04 13:43 | 49.93430 | 82.60195 | 3586 ft | 163 kts | 200° |
| 2026-05-04 13:43 | 49.92609 | 82.59176 | 3529 ft | 149 kts | 262° |
| 2026-05-04 13:43 | 49.92824 | 82.57802 | 3372 ft | 128 kts | 321° |
| 2026-05-04 13:43 | 49.93616 | 82.57328 | 3222 ft | 125 kts | 355° |
| 2026-05-04 13:44 | 49.94469 | 82.57536 | 3075 ft | 125 kts | 14° |
| 2026-05-04 13:44 | 49.95291 | 82.57929 | 3025 ft | 124 kts | 12° |
| 2026-05-04 13:44 | 49.96113 | 82.58364 | 2886 ft | 125 kts | 12° |
| 2026-05-04 13:44 | 49.96961 | 82.58594 | 2554 ft | 121 kts | 2° |
| 2026-05-04 13:45 | 49.97789 | 82.58461 | 2289 ft | 120 kts | 349° |
| 2026-05-04 13:45 | 49.98590 | 82.58234 | 2144 ft | 121 kts | 335° |
| 2026-05-04 13:45 | 49.99237 | 82.57350 | 2009 ft | 127 kts | 316° |
| 2026-05-04 13:45 | 49.99813 | 82.56284 | 1866 ft | 129 kts | 316° |
| 2026-05-04 13:46 | 50.00414 | 82.55238 | 1688 ft | 130 kts | 316° |
| 2026-05-04 13:46 | 50.00995 | 82.54193 | 1533 ft | 127 kts | 313° |
| 2026-05-04 13:46 | 50.01555 | 82.53161 | 1359 ft | 124 kts | 314° |
| 2026-05-04 13:46 | 50.02121 | 82.52147 | 1192 ft | 125 kts | 315° |
| 2026-05-04 13:47 | 50.02691 | 82.51113 | 1033 ft | 126 kts | 314° |
| 2026-05-04 13:47 | 50.03241 | 82.50114 | 951 ft | 108 kts | 313° |
| 2026-05-04 13:47 | 50.03650 | 82.49370 | 950 ft | 72 kts | 309° |
| 2026-05-04 13:47 | 50.03910 | 82.48907 | 949 ft | 44 kts | 309° |
| 2026-05-04 13:48 | 50.04062 | 82.48622 | 949 ft | 23 kts | 303° |
| 2026-05-04 13:48 | 50.04157 | 82.48435 | 948 ft | 22 kts | 309° |
| 2026-05-04 13:48 | 50.04256 | 82.48260 | 951 ft | 21 kts | 310° |
| 2026-05-04 13:48 | 50.04316 | 82.48066 | 951 ft | 14 kts | 283° |
| 2026-05-04 13:49 | 50.04367 | 82.48029 | 952 ft | 6 kts | 72° |
| 2026-05-04 13:49 | 50.04352 | 82.48103 | 951 ft | 10 kts | 124° |
| 2026-05-04 13:49 | 50.04297 | 82.48211 | 950 ft | 15 kts | 129° |
| 2026-05-04 13:49 | 50.04226 | 82.48346 | 948 ft | 19 kts | 130° |
| 2026-05-04 13:50 | 50.04116 | 82.48541 | 950 ft | 28 kts | 131° |
| 2026-05-04 13:50 | 50.03982 | 82.48784 | 951 ft | 30 kts | 130° |
| 2026-05-04 13:50 | 50.03846 | 82.49034 | 952 ft | 31 kts | 133° |
| 2026-05-04 13:50 | 50.03699 | 82.49293 | 950 ft | 33 kts | 130° |
| 2026-05-04 13:51 | 50.03545 | 82.49575 | 948 ft | 35 kts | 129° |
| 2026-05-04 13:51 | 50.03447 | 82.49778 | 948 ft | 36 kts | 124° |
| 2026-05-04 13:51 | 50.03310 | 82.50078 | 947 ft | 28 kts | 140° |
| 2026-05-04 13:51 | 50.03157 | 82.50254 | 949 ft | 18 kts | 162° |
| 2026-05-04 13:52 | 50.02975 | 82.50210 | 951 ft | 15 kts | 130° |
| 2026-05-04 13:52 | 50.02893 | 82.50360 | 950 ft | 21 kts | 131° |
| 2026-05-04 13:52 | 50.02793 | 82.50540 | 952 ft | 23 kts | 131° |
| 2026-05-04 13:53 | 50.02705 | 82.50687 | 950 ft | 10 kts | 130° |
| 2026-05-04 13:53 | 50.02700 | 82.50697 | 951 ft | 0 kts | 130° |